Time;durP1;ratioP1;P1;durP2;ratioP2;P2;SDS_P1;SDS_P2;PMS_P1;PMS_P2;Temp;Humidity;BMP_temperature;BMP_pressure;BME280_temperature;BME280_humidity;BME280_pressure;Samples;Min_cycle;Max_cycle;Signal;HPM_P1;HPM_P2
2024/04/12 00:04:27;;;;;;;1999.90;999.90;;;;;;;13.99;100.00;103099.72;11283645;26;20013;-69
2024/04/12 00:09:30;;;;;;;1999.90;999.90;;;;;;;13.98;100.00;103086.63;11281591;26;19999;-69
2024/04/12 00:14:32;;;;;;;1999.90;999.90;;;;;;;13.82;100.00;103084.53;11251811;26;20007;-69
2024/04/12 00:19:36;;;;;;;1999.90;999.90;;;;;;;13.96;100.00;103064.75;11251812;26;20049;-69
2024/04/12 00:24:38;;;;;;;1999.90;999.90;;;;;;;13.94;100.00;103063.00;11281132;26;19998;-69
2024/04/12 00:29:40;;;;;;;1999.90;999.90;;;;;;;13.87;100.00;103061.53;11280922;26;20342;-69
2024/04/12 00:34:51;;;;;;;1999.90;999.90;;;;;;;13.86;100.00;103051.03;11282366;26;19999;-69
2024/04/12 00:39:55;;;;;;;1999.90;999.90;;;;;;;13.74;100.00;103044.44;11281996;26;20076;-69
2024/04/12 00:44:58;;;;;;;1999.90;999.90;;;;;;;13.74;100.00;103055.81;11280234;26;20016;-69
2024/04/12 00:50:03;;;;;;;1999.90;999.90;;;;;;;14.03;100.00;103053.06;11250317;26;20039;-69
2024/04/12 00:55:07;;;;;;;1999.90;999.90;;;;;;;13.79;100.00;103031.97;11281345;26;20007;-69
2024/04/12 01:00:12;;;;;;;1999.90;999.90;;;;;;;13.91;100.00;103036.78;11258227;26;19999;-69
2024/04/12 01:05:19;;;;;;;1999.90;999.90;;;;;;;13.85;100.00;103020.34;11257919;26;19999;-69
2024/04/12 01:10:26;;;;;;;1999.90;999.90;;;;;;;13.72;100.00;103028.69;11257247;26;19999;-69
2024/04/12 01:15:32;;;;;;;1999.90;999.90;;;;;;;13.77;100.00;103019.75;11286961;26;19999;-69
2024/04/12 01:20:35;;;;;;;1999.90;999.90;;;;;;;13.65;100.00;103021.94;11286901;26;19999;-69
2024/04/12 01:25:39;;;;;;;1999.90;999.90;;;;;;;13.53;100.00;103002.16;11287243;26;20059;-69
2024/04/12 01:30:45;;;;;;;1999.90;999.90;;;;;;;13.61;100.00;102999.25;11288799;26;19999;-69
2024/04/12 01:35:48;;;;;;;1999.90;999.90;;;;;;;13.55;100.00;102995.06;11288402;26;20007;-69
2024/04/12 01:40:57;;;;;;;1999.90;999.90;;;;;;;13.75;100.00;102977.69;11288093;26;20011;-69
2024/04/12 01:46:11;;;;;;;1999.90;999.90;;;;;;;13.83;100.00;102961.63;11286569;26;20035;-69
2024/04/12 01:51:14;;;;;;;1999.90;999.90;;;;;;;13.72;100.00;102976.03;11286202;26;19999;-69
2024/04/12 01:56:19;;;;;;;1999.90;999.90;;;;;;;13.89;100.00;102969.31;11284970;26;20099;-69
2024/04/12 02:01:27;;;;;;;1999.90;999.90;;;;;;;13.84;100.00;102972.09;11256370;26;20722;-69
2024/04/12 02:06:33;;;;;;;1999.90;999.90;;;;;;;13.70;100.00;102979.63;11285213;26;20003;-69
2024/04/12 02:11:37;;;;;;;1999.90;999.90;;;;;;;13.86;100.00;102995.75;11285540;26;19999;-69
2024/04/12 02:16:41;;;;;;;1999.90;999.90;;;;;;;13.89;100.00;102993.00;11255892;26;20002;-69
2024/04/12 02:21:45;;;;;;;1999.90;999.90;;;;;;;13.65;100.00;102978.94;11285118;26;20029;-69
2024/04/12 02:26:48;;;;;;;1999.90;999.90;;;;;;;13.61;100.00;102979.97;11286863;26;20345;-69
2024/04/12 02:31:51;;;;;;;1999.90;999.90;;;;;;;13.76;100.00;102987.31;11286736;26;20035;-69
2024/04/12 02:36:54;;;;;;;1999.90;999.90;;;;;;;13.74;100.00;102989.16;11284869;26;20010;-69
2024/04/12 02:41:56;;;;;;;1999.90;999.90;;;;;;;13.75;100.00;102998.75;11286439;26;20038;-69
2024/04/12 02:46:59;;;;;;;1999.90;999.90;;;;;;;13.81;100.00;102998.53;11286230;26;20010;-69
2024/04/12 02:52:01;;;;;;;1999.90;999.90;;;;;;;13.93;100.00;102991.97;11286227;26;20006;-69
2024/04/12 02:57:04;;;;;;;1999.90;999.90;;;;;;;13.77;100.00;102990.78;11284275;26;20335;-69
2024/04/12 03:02:07;;;;;;;1999.90;999.90;;;;;;;13.63;100.00;102986.88;11285899;26;20002;-69
2024/04/12 03:07:12;;;;;;;1999.90;999.90;;;;;;;13.84;100.00;102992.31;11285594;26;20014;-69
2024/04/12 03:12:14;;;;;;;1999.90;999.90;;;;;;;13.91;100.00;102992.00;11285420;26;20462;-69
2024/04/12 03:17:17;;;;;;;1999.90;999.90;;;;;;;13.75;100.00;102988.22;11282370;26;20014;-69
2024/04/12 03:22:21;;;;;;;1999.90;999.90;;;;;;;13.79;100.00;102984.56;11284893;26;20469;-69
2024/04/12 03:27:23;;;;;;;1999.90;999.90;;;;;;;13.51;100.00;102996.06;11283048;26;20006;-69
2024/04/12 03:32:32;;;;;;;1999.90;999.90;;;;;;;13.45;100.00;102982.25;11284696;26;19999;-69
2024/04/12 03:37:38;;;;;;;1999.90;999.90;;;;;;;13.63;100.00;102975.50;11282739;26;20468;-69
2024/04/12 03:42:41;;;;;;;1999.90;999.90;;;;;;;13.70;100.00;102966.47;11282850;26;20348;-69
2024/04/12 03:47:44;;;;;;;1999.90;999.90;;;;;;;13.53;100.00;102970.56;11282585;26;20039;-69
2024/04/12 03:52:48;;;;;;;1999.90;999.90;;;;;;;13.52;100.00;102968.84;11284367;26;20031;-69
2024/04/12 03:57:51;;;;;;;1999.90;999.90;;;;;;;13.73;100.00;102967.22;11283695;26;19999;-69
2024/04/12 04:02:54;;;;;;;1999.90;999.90;;;;;;;13.87;100.00;102961.47;11281870;26;20362;-69
2024/04/12 04:07:56;;;;;;;1999.90;999.90;;;;;;;13.61;100.00;102951.88;11283778;26;20465;-69
2024/04/12 04:13:03;;;;;;;1999.90;999.90;;;;;;;13.72;100.00;102948.84;11283360;26;19995;-69
2024/04/12 04:18:10;;;;;;;1999.90;999.90;;;;;;;13.73;100.00;102938.28;11283660;26;19999;-69
2024/04/12 04:23:17;;;;;;;1999.90;999.90;;;;;;;13.61;100.00;102941.34;11305577;20;20020;-67
2024/04/12 04:28:27;;;;;;;1999.90;999.90;;;;;;;13.82;100.00;102923.91;11358122;26;19999;-68
2024/04/12 04:33:30;;;;;;;1999.90;999.90;;;;;;;13.56;100.00;102932.75;11365713;26;19998;-68
2024/04/12 04:38:33;;;;;;;1999.90;999.90;;;;;;;13.65;100.00;102926.28;11363566;26;20009;-68
2024/04/12 04:43:36;;;;;;;1999.90;999.90;;;;;;;13.65;100.00;102927.16;11364320;26;19998;-68
2024/04/12 04:48:38;;;;;;;1999.90;999.90;;;;;;;13.64;100.00;102927.22;11364854;26;20002;-68
2024/04/12 04:53:41;;;;;;;1999.90;999.90;;;;;;;13.66;100.00;102938.53;11363259;26;20013;-68
2024/04/12 04:58:44;;;;;;;1999.90;999.90;;;;;;;13.66;100.00;102947.28;11363027;26;20070;-68
2024/04/12 05:03:49;;;;;;;1999.90;999.90;;;;;;;13.72;100.00;102948.84;11362720;26;20013;-68
2024/04/12 05:08:55;;;;;;;1999.90;999.90;;;;;;;13.76;100.00;102950.44;11333275;26;19998;-68
2024/04/12 05:14:02;;;;;;;1999.90;999.90;;;;;;;13.74;100.00;102942.59;11364384;26;19998;-68
2024/04/12 05:19:08;;;;;;;1999.90;999.90;;;;;;;13.78;100.00;102945.13;11363216;26;19998;-68
2024/04/12 05:24:12;;;;;;;1999.90;999.90;;;;;;;13.90;100.00;102945.56;11363917;26;19994;-68
2024/04/12 05:29:17;;;;;;;1999.90;999.90;;;;;;;13.81;100.00;102940.59;11363892;26;20010;-69
2024/04/12 05:34:19;;;;;;;1999.90;999.90;;;;;;;13.88;100.00;102935.97;11362020;26;19998;-68
2024/04/12 05:39:25;;;;;;;1999.90;999.90;;;;;;;13.97;100.00;102937.41;11363515;26;19998;-68
2024/04/12 05:44:27;;;;;;;1999.90;999.90;;;;;;;14.01;100.00;102946.91;11362515;26;20075;-68
2024/04/12 05:49:30;;;;;;;1999.90;999.90;;;;;;;14.33;100.00;102948.31;11362803;26;20013;-69
2024/04/12 05:54:39;;;;;;;1999.90;999.90;;;;;;;14.26;100.00;102936.31;11363016;26;20403;-68
2024/04/12 05:59:42;;;;;;;1999.90;999.90;;;;;;;14.55;100.00;102935.13;11362656;26;20038;-68
2024/04/12 06:04:47;;;;;;;1999.90;999.90;;;;;;;14.42;100.00;102945.28;11362908;26;20031;-68
2024/04/12 06:09:50;;;;;;;1999.90;999.90;;;;;;;14.60;100.00;102935.00;11362695;26;20002;-69
2024/04/12 06:14:52;;;;;;;1999.90;999.90;;;;;;;14.34;100.00;102925.44;11362603;26;20451;-69
2024/04/12 06:19:59;;;;;;;1999.90;999.90;;;;;;;14.62;100.00;102919.97;11362967;26;20034;-69
2024/04/12 06:25:02;;;;;;;1999.90;999.90;;;;;;;14.60;100.00;102914.75;11362025;26;20452;-68
2024/04/12 06:30:06;;;;;;;1999.90;999.90;;;;;;;14.78;100.00;102925.47;11362057;26;20463;-68
2024/04/12 06:35:20;;;;;;;1999.90;999.90;;;;;;;14.50;100.00;102924.78;11362688;26;20359;-68
2024/04/12 06:40:28;;;;;;;1999.90;999.90;;;;;;;14.85;100.00;102933.06;11361794;26;20365;-69
2024/04/12 06:45:31;;;;;;;1999.90;999.90;;;;;;;15.13;100.00;102946.84;11362224;26;19998;-68
2024/04/12 06:50:36;;;;;;;1999.90;999.90;;;;;;;14.93;100.00;102942.41;11361299;26;19998;-68
2024/04/12 06:55:46;;;;;;;1999.90;999.90;;;;;;;14.83;100.00;102942.81;11359398;26;20336;-68
2024/04/12 07:00:55;;;;;;;1999.90;999.90;;;;;;;14.93;100.00;102934.50;11362057;26;19995;-68
2024/04/12 07:06:01;;;;;;;1999.90;999.90;;;;;;;15.05;100.00;102929.59;11361102;26;19998;-68
2024/04/12 07:11:07;;;;;;;1999.90;999.90;;;;;;;15.18;100.00;102931.69;11361480;26;20038;-68
2024/04/12 07:16:10;;;;;;;1999.90;999.90;;;;;;;15.20;100.00;102936.00;11360855;26;20038;-68
2024/04/12 07:21:15;;;;;;;1999.90;999.90;;;;;;;15.33;100.00;102943.38;11360405;26;20267;-68
2024/04/12 07:26:24;;;;;;;1999.90;999.90;;;;;;;15.30;100.00;102938.22;11358680;26;20009;-68
2024/04/12 07:31:30;;;;;;;1999.90;999.90;;;;;;;15.62;100.00;102942.09;11358610;26;20368;-68
2024/04/12 07:36:33;;;;;;;1999.90;999.90;;;;;;;15.46;100.00;102935.78;11359910;26;19998;-67
2024/04/12 07:41:43;;;;;;;1999.90;999.90;;;;;;;15.75;100.00;102947.66;11357905;26;20013;-68
2024/04/12 07:46:49;;;;;;;1999.90;999.90;;;;;;;15.89;100.00;102941.81;11359593;26;20002;-68
2024/04/12 07:51:52;;;;;;;1999.90;999.90;;;;;;;16.13;100.00;102940.66;11359474;26;20012;-68
2024/04/12 07:57:07;;;;;;;1999.90;999.90;;;;;;;16.24;100.00;102939.28;11359318;26;20340;-68
2024/04/12 08:02:17;;;;;;;1999.90;999.90;;;;;;;15.94;100.00;102932.75;11359287;26;19999;-68
2024/04/12 08:07:29;;;;;;;1999.90;999.90;;;;;;;16.04;100.00;102948.16;11363260;26;20517;-68
2024/04/12 08:12:33;;;;;;;1999.90;999.90;;;;;;;16.51;100.00;102939.78;11366089;26;20379;-68
2024/04/12 08:17:39;;;;;;;1999.90;999.90;;;;;;;16.20;100.00;102951.78;11366056;26;20002;-68
2024/04/12 08:22:43;;;;;;;1999.90;999.90;;;;;;;16.64;100.00;102946.19;11365922;26;20453;-68
2024/04/12 08:27:46;;;;;;;1999.90;999.90;;;;;;;16.26;100.00;102958.59;11365796;26;20448;-68
2024/04/12 08:32:49;;;;;;;1999.90;999.90;;;;;;;16.26;100.00;102953.31;11365684;26;20019;-68
2024/04/12 08:37:52;;;;;;;1999.90;999.90;;;;;;;16.34;100.00;102962.59;11365293;26;20002;-68
2024/04/12 08:43:09;;;;;;;1999.90;999.90;;;;;;;17.10;100.00;102953.63;11365272;26;20341;-68
2024/04/12 08:48:13;;;;;;;1999.90;999.90;;;;;;;17.04;98.03;102953.94;11363500;26;19998;-68
2024/04/12 08:53:20;;;;;;;1999.90;999.90;;;;;;;17.14;98.45;102952.53;11363166;26;19998;-68
2024/04/12 08:58:23;;;;;;;1999.90;999.90;;;;;;;16.86;97.83;102951.28;11363306;26;20006;-68
2024/04/12 09:03:32;;;;;;;1999.90;999.90;;;;;;;17.08;98.64;102953.72;11364760;26;20397;-68
2024/04/12 09:08:40;;;;;;;1999.90;999.90;;;;;;;16.95;96.85;102952.63;11362909;26;20183;-68
2024/04/12 09:13:46;;;;;;;1999.90;999.90;;;;;;;17.49;95.96;102952.50;11364377;26;20439;-68
2024/04/12 09:18:51;;;;;;;1999.90;999.90;;;;;;;17.54;93.64;102952.25;11362824;26;20005;-68
2024/04/12 09:23:57;;;;;;;1999.90;999.90;;;;;;;17.49;92.73;102949.84;11364091;26;20034;-68
2024/04/12 09:29:09;;;;;;;1999.90;999.90;;;;;;;18.08;90.63;102944.94;11362348;26;20010;-68
2024/04/12 09:34:22;;;;;;;1999.90;999.90;;;;;;;18.40;87.76;102944.09;11362052;26;20013;-68
2024/04/12 09:39:41;;;;;;;1999.90;999.90;;;;;;;18.19;85.69;102947.03;11363843;26;20095;-68
2024/04/12 09:44:59;;;;;;;1999.90;999.90;;;;;;;19.26;84.89;102937.28;11361972;26;20013;-68
2024/04/12 10:38:30;;;;;;;1999.90;999.90;;;;;;;19.70;74.99;102900.94;11361590;26;20070;-70
2024/04/12 10:43:47;;;;;;;1999.90;999.90;;;;;;;21.71;71.18;102896.44;11360276;26;19998;-70
2024/04/12 10:48:49;;;;;;;1999.90;999.90;;;;;;;22.25;70.68;102906.72;11361536;26;20124;-70
2024/04/12 10:53:55;;;;;;;1999.90;999.90;;;;;;;21.79;70.08;102896.75;11361397;26;20450;-70
2024/04/12 10:58:59;;;;;;;1999.90;999.90;;;;;;;20.92;73.94;102901.06;11330336;26;20074;-70
2024/04/12 11:04:02;;;;;;;1999.90;999.90;;;;;;;23.13;65.97;102892.13;11361096;26;20075;-66
2024/04/12 11:09:05;;;;;;;1999.90;999.90;;;;;;;21.46;66.51;102897.31;11360831;26;20013;-66
2024/04/12 11:14:15;;;;;;;1999.90;999.90;;;;;;;21.34;67.33;102889.22;11358960;26;19998;-66
2024/04/12 11:35:29;;;;;;;1999.90;999.90;;;;;;;24.69;56.31;102849.22;11344939;26;20014;-66
2024/04/12 11:40:37;;;;;;;1999.90;999.90;;;;;;;23.44;57.75;102856.78;11358887;26;20006;-66
2024/04/12 11:45:41;;;;;;;1999.90;999.90;;;;;;;23.35;59.24;102853.88;11359851;26;19998;-66
2024/04/12 11:50:44;;;;;;;1999.90;999.90;;;;;;;24.71;56.41;102844.56;11359565;26;20013;-67
2024/04/12 11:55:48;;;;;;;1999.90;999.90;;;;;;;24.93;53.82;102844.44;11359193;26;20071;-66
2024/04/12 12:00:52;;;;;;;1999.90;999.90;;;;;;;24.15;55.01;102838.50;11359100;26;19998;-67
2024/04/12 12:05:57;;;;;;;1999.90;999.90;;;;;;;24.64;55.01;102839.72;11358688;26;19998;-67
2024/04/12 12:11:00;;;;;;;1999.90;999.90;;;;;;;25.12;55.26;102832.94;11359331;26;19999;-67
2024/04/12 12:16:05;;;;;;;1999.90;999.90;;;;;;;25.99;55.65;102836.88;11358671;26;20475;-67
2024/04/12 12:21:08;;;;;;;1999.90;999.90;;;;;;;23.02;61.43;102849.34;11358412;26;20437;-67
2024/04/12 12:26:14;;;;;;;1999.90;999.90;;;;;;;24.34;58.17;102835.13;11356321;26;20074;-67
2024/04/12 12:31:19;;;;;;;1999.90;999.90;;;;;;;25.11;55.26;102843.78;11357991;26;19999;-67
2024/04/12 12:36:23;;;;;;;1999.90;999.90;;;;;;;23.29;57.92;102843.66;11357847;26;20002;-67
2024/04/12 12:41:27;;;;;;;1999.90;999.90;;;;;;;23.81;57.38;102829.72;11326130;26;19998;-67
2024/04/12 12:46:29;;;;;;;1999.90;999.90;;;;;;;24.41;56.08;102824.75;11357616;26;20012;-66
2024/04/12 12:51:34;;;;;;;1999.90;999.90;;;;;;;25.18;56.28;102820.81;11359165;26;19998;-67
2024/04/12 12:56:40;;;;;;;1999.90;999.90;;;;;;;24.88;53.03;102808.28;11364941;26;19998;-67
2024/04/12 13:01:42;;;;;;;1999.90;999.90;;;;;;;24.99;55.98;102811.72;11364936;26;20026;-67
2024/04/12 13:06:45;;;;;;;1999.90;999.90;;;;;;;25.54;53.60;102808.69;11332712;26;20002;-66
2024/04/12 13:11:47;;;;;;;1999.90;999.90;;;;;;;26.62;53.36;102789.88;11363153;26;19998;-66
2024/04/12 13:16:50;;;;;;;1999.90;999.90;;;;;;;25.29;54.88;102787.75;11364367;26;20006;-66
2024/04/12 13:21:54;;;;;;;1999.90;999.90;;;;;;;26.44;52.77;102770.97;11364300;26;20002;-66
2024/04/12 13:26:59;;;;;;;1999.90;999.90;;;;;;;24.67;54.07;102769.00;11364014;26;20017;-66
2024/04/12 13:32:05;;;;;;;1999.90;999.90;;;;;;;25.13;53.86;102774.81;11363595;26;20009;-66
2024/04/12 13:37:08;;;;;;;1999.90;999.90;;;;;;;24.56;54.89;102777.09;11363641;26;20039;-66
2024/04/12 13:42:10;;;;;;;1999.90;999.90;;;;;;;24.29;56.92;102770.44;11363318;26;20034;-66
2024/04/12 13:52:37;;;;;;;1999.90;999.90;;;;;;;23.10;56.43;102755.25;11363185;26;20042;-66
2024/04/12 13:57:40;;;;;;;1999.90;999.90;;;;;;;23.79;58.00;102759.44;11363157;26;20075;-66
2024/04/12 14:02:43;;;;;;;1999.90;999.90;;;;;;;23.81;57.49;102757.53;11362459;26;20009;-66
2024/04/12 14:07:49;;;;;;;1999.90;999.90;;;;;;;25.22;53.90;102742.69;11362780;26;20006;-66
2024/04/12 14:12:52;;;;;;;1999.90;999.90;;;;;;;25.08;53.38;102737.72;11361438;26;19998;-66
2024/04/12 14:17:54;;;;;;;1999.90;999.90;;;;;;;24.82;52.89;102730.16;11362422;26;20073;-66
2024/04/12 14:22:57;;;;;;;1999.90;999.90;;;;;;;23.85;56.15;102732.25;11362044;26;20030;-66
2024/04/12 14:28:00;;;;;;;1999.90;999.90;;;;;;;24.20;54.91;102731.09;11361741;26;20074;-66
2024/04/12 14:33:02;;;;;;;1999.90;999.90;;;;;;;23.07;56.57;102742.16;11362315;26;20002;-66
2024/04/12 14:38:05;;;;;;;1999.90;999.90;;;;;;;23.06;56.54;102732.41;11362131;26;19998;-66
2024/04/12 14:43:08;;;;;;;1999.90;999.90;;;;;;;22.51;58.52;102741.16;11361874;26;20012;-66
2024/04/12 14:48:13;;;;;;;1999.90;999.90;;;;;;;22.22;58.83;102738.84;11359569;26;20001;-65
2024/04/12 14:53:16;;;;;;;1999.90;999.90;;;;;;;22.24;59.05;102734.28;11361449;26;19998;-65
2024/04/12 14:58:22;;;;;;;1999.90;999.90;;;;;;;22.32;58.96;102728.34;11361349;26;19998;-65
2024/04/12 15:51:34;;;;;;;1999.90;999.90;;;;;;;21.21;59.53;102698.41;11359289;26;19965;-65
2024/04/12 16:12:40;;;;;;;;;;;;;;;21.09;61.13;102682.34;11359402;26;19998;-66
2024/04/12 16:17:43;;;;;;;1999.90;999.90;;;;;;;20.97;60.46;102669.94;11356911;26;19924;-65
2024/04/12 16:22:45;;;;;;;1999.90;999.90;;;;;;;21.20;59.09;102673.59;11358057;26;20014;-66
2024/04/12 16:27:48;;;;;;;1999.90;999.90;;;;;;;20.86;60.25;102676.00;11363591;26;19998;-66
2024/04/12 16:32:51;;;;;;;1999.90;999.90;;;;;;;20.93;60.33;102671.09;11365671;26;20074;-66
2024/04/12 16:37:54;;;;;;;1999.90;999.90;;;;;;;20.90;60.09;102671.34;11372790;20;20730;-65
2024/04/12 16:42:57;;;;;;;1999.90;999.90;;;;;;;20.69;61.54;102668.41;11365567;26;20472;-65
2024/04/12 16:48:00;;;;;;;1999.90;999.90;;;;;;;20.62;61.61;102670.59;11365011;26;19998;-66
2024/04/12 16:53:03;;;;;;;1999.90;999.90;;;;;;;20.28;62.97;102661.50;11364969;26;20470;-66
2024/04/12 16:58:08;;;;;;;1999.90;999.90;;;;;;;20.70;62.08;102660.31;11364769;26;19998;-66
2024/04/12 17:03:13;;;;;;;1999.90;999.90;;;;;;;20.42;62.83;102670.22;11364868;26;19994;-66
2024/04/12 17:08:15;;;;;;;1999.90;999.90;;;;;;;20.50;62.67;102668.81;11364670;26;20433;-66
2024/04/12 17:13:22;;;;;;;1999.90;999.90;;;;;;;19.98;64.86;102671.44;11364577;26;20030;-66
2024/04/12 17:18:26;;;;;;;1999.90;999.90;;;;;;;20.32;63.39;102655.81;11364377;26;20017;-66
2024/04/12 17:23:29;;;;;;;1999.90;999.90;;;;;;;20.03;65.34;102648.06;11364189;26;19998;-66
2024/04/12 17:28:31;;;;;;;1999.90;999.90;;;;;;;19.90;66.88;102649.00;11363924;26;20010;-66
2024/04/12 17:33:34;;;;;;;1999.90;999.90;;;;;;;19.97;64.54;102651.16;11363591;26;20005;-66
2024/04/12 17:38:38;;;;;;;1999.90;999.90;;;;;;;19.99;65.27;102656.38;11362284;26;20464;-66
2024/04/12 17:43:41;;;;;;;1999.90;999.90;;;;;;;19.80;66.84;102648.78;11364159;26;20010;-66
2024/04/12 17:48:43;;;;;;;1999.90;999.90;;;;;;;19.51;68.86;102646.22;11363165;26;19998;-66
2024/04/12 17:53:46;;;;;;;1999.90;999.90;;;;;;;19.49;68.74;102651.63;11361574;26;19998;-66
2024/04/12 17:58:48;;;;;;;1999.90;999.90;;;;;;;19.19;70.88;102641.22;11362884;26;20464;-66
2024/04/12 18:03:51;;;;;;;1999.90;999.90;;;;;;;18.81;72.82;102643.63;11362954;26;19998;-66
2024/04/12 18:08:54;;;;;;;1999.90;999.90;;;;;;;18.70;73.42;102636.38;11360875;26;20012;-66
2024/04/12 18:13:57;;;;;;;1999.90;999.90;;;;;;;18.42;74.73;102632.75;11362545;26;20067;-66
2024/04/12 18:19:02;;;;;;;1999.90;999.90;;;;;;;18.23;77.20;102637.50;11362298;26;19998;-66
2024/04/12 18:24:05;;;;;;;1999.90;999.90;;;;;;;17.84;80.07;102645.06;11360560;26;20030;-66
2024/04/12 18:29:07;;;;;;;1999.90;999.90;;;;;;;17.74;81.91;102638.59;11362332;26;20030;-66
2024/04/12 18:34:12;;;;;;;1999.90;999.90;;;;;;;17.83;81.04;102636.25;11362068;26;20012;-66
2024/04/12 18:49:57;;;;;;;1999.90;999.90;;;;;;;17.15;85.71;102654.34;11360954;26;20427;-66
2024/04/12 18:55:00;;;;;;;1999.90;999.90;;;;;;;17.07;86.53;102641.53;11360891;26;19994;-66
2024/04/12 19:00:04;;;;;;;1999.90;999.90;;;;;;;16.91;87.41;102649.44;11360758;26;20043;-66
2024/04/12 19:05:07;;;;;;;1999.90;999.90;;;;;;;16.84;88.14;102646.25;11340125;26;20075;-66
2024/04/12 19:10:10;;;;;;;1999.90;999.90;;;;;;;16.81;91.25;102646.44;11285716;26;20005;-66
2024/04/12 19:15:13;;;;;;;1999.90;999.90;;;;;;;16.69;89.21;102637.38;11285376;26;20046;-66
2024/04/12 19:20:15;;;;;;;1999.90;999.90;;;;;;;16.75;88.62;102637.97;11283357;26;20007;-66
2024/04/12 19:25:18;;;;;;;1999.90;999.90;;;;;;;16.74;89.64;102647.69;11284923;26;20014;-66
2024/04/12 19:30:20;;;;;;;1999.90;999.90;;;;;;;16.68;89.50;102638.28;11284731;26;20013;-66
2024/04/12 19:35:23;;;;;;;1999.90;999.90;;;;;;;16.75;89.69;102635.31;11285138;26;19998;-66
2024/04/12 19:40:25;;;;;;;1999.90;999.90;;;;;;;16.45;92.14;102643.97;11284420;26;19999;-66
2024/04/12 19:45:28;;;;;;;1999.90;999.90;;;;;;;16.55;92.42;102642.53;11282953;26;20013;-66
2024/04/12 19:50:32;;;;;;;1999.90;999.90;;;;;;;16.27;94.87;102644.00;11284338;26;20003;-66
2024/04/12 19:55:36;;;;;;;1999.90;999.90;;;;;;;16.20;93.26;102637.31;11282494;26;19999;-66
2024/04/12 20:00:39;;;;;;;1999.90;999.90;;;;;;;16.48;92.07;102626.13;11285980;26;20014;-66
2024/04/12 20:05:49;;;;;;;1999.90;999.90;;;;;;;16.29;94.49;102626.28;11291116;26;19999;-66
2024/04/12 20:10:59;;;;;;;1999.90;999.90;;;;;;;16.06;96.91;102624.81;11289380;26;20075;-66
2024/04/12 20:16:04;;;;;;;1999.90;999.90;;;;;;;15.81;98.81;102632.28;11291269;26;20335;-66
2024/04/12 20:21:10;;;;;;;1999.90;999.90;;;;;;;15.72;100.00;102633.59;11288895;26;19998;-66
2024/04/12 20:26:17;;;;;;;1999.90;999.90;;;;;;;15.57;100.00;102637.84;11290459;26;20457;-66
2024/04/12 20:36:37;;;;;;;1999.90;999.90;;;;;;;15.41;100.00;102630.66;11288722;26;19999;-66
2024/04/12 20:41:41;;;;;;;1999.90;999.90;;;;;;;15.40;100.00;102636.03;11288143;26;20126;-66
2024/04/12 20:46:45;;;;;;;1999.90;999.90;;;;;;;15.13;100.00;102646.09;11290077;26;20005;-66
2024/04/12 20:51:48;;;;;;;1999.90;999.90;;;;;;;15.08;100.00;102645.47;11289718;26;20518;-66
2024/04/12 20:56:51;;;;;;;1999.90;999.90;;;;;;;15.63;100.00;102641.94;11289339;26;20035;-66
2024/04/12 21:01:54;;;;;;;1999.90;999.90;;;;;;;15.50;100.00;102629.38;11287793;26;20007;-66
2024/04/12 21:06:56;;;;;;;1999.90;999.90;;;;;;;15.60;100.00;102627.09;11289496;26;19999;-66
2024/04/12 21:11:58;;;;;;;1999.90;999.90;;;;;;;16.03;97.18;102632.91;11287823;26;19999;-66
2024/04/12 21:17:01;;;;;;;1999.90;999.90;;;;;;;16.08;94.75;102622.09;11287300;26;20088;-66
2024/04/12 21:22:04;;;;;;;1999.90;999.90;;;;;;;16.00;94.86;102630.41;11286892;26;20009;-66
2024/04/12 21:27:07;;;;;;;1999.90;999.90;;;;;;;15.95;95.07;102632.44;11257877;26;19999;-66
2024/04/12 21:32:10;;;;;;;1999.90;999.90;;;;;;;15.94;93.45;102626.31;11288251;26;20446;-66
2024/04/12 21:37:13;;;;;;;1999.90;999.90;;;;;;;15.90;93.61;102611.56;11286442;26;20396;-66
2024/04/12 21:42:16;;;;;;;1999.90;999.90;;;;;;;16.04;91.17;102608.19;11286739;26;20472;-66
2024/04/12 21:47:20;;;;;;;1999.90;999.90;;;;;;;16.19;90.77;102603.91;11288031;26;20007;-66
2024/04/12 21:52:22;;;;;;;1999.90;999.90;;;;;;;15.96;92.04;102605.09;11286147;26;20023;-66
2024/04/12 21:57:25;;;;;;;1999.90;999.90;;;;;;;16.21;90.30;102611.75;11287802;26;20468;-66
2024/04/12 22:02:29;;;;;;;1999.90;999.90;;;;;;;16.31;89.22;102623.56;11288205;26;20523;-66
2024/04/12 22:07:32;;;;;;;1999.90;999.90;;;;;;;15.81;93.63;102619.09;11287755;26;20014;-66
2024/04/12 22:12:34;;;;;;;1999.90;999.90;;;;;;;15.58;96.11;102619.28;11287349;26;20452;-66
2024/04/12 22:17:37;;;;;;;1999.90;999.90;;;;;;;15.87;94.41;102605.56;11287220;26;20457;-66
2024/04/12 22:22:40;;;;;;;1999.90;999.90;;;;;;;15.16;99.78;102619.56;11286413;26;20531;-66
2024/04/12 22:27:43;;;;;;;1999.90;999.90;;;;;;;15.77;95.46;102613.13;11285180;26;20010;-66
2024/04/12 22:32:45;;;;;;;1999.90;999.90;;;;;;;15.50;98.50;102613.53;11286979;26;20010;-66
2024/04/12 22:37:49;;;;;;;1999.90;999.90;;;;;;;15.54;97.26;102606.31;11286703;26;19999;-66
2024/04/12 22:42:51;;;;;;;1999.90;999.90;;;;;;;15.65;95.71;102597.84;11286624;26;20338;-66
2024/04/12 22:47:54;;;;;;;1999.90;999.90;;;;;;;15.79;93.59;102606.81;11286380;26;19999;-66
2024/04/12 22:52:56;;;;;;;1999.90;999.90;;;;;;;15.42;98.19;102605.97;11286877;26;20009;-66
2024/04/12 22:57:59;;;;;;;1999.90;999.90;;;;;;;15.64;96.39;102610.19;11286272;26;20104;-66
2024/04/12 23:03:01;;;;;;;1999.90;999.90;;;;;;;15.75;94.48;102613.19;11285989;26;19999;-66
2024/04/12 23:08:04;;;;;;;1999.90;999.90;;;;;;;15.44;96.50;102603.25;11285722;26;19998;-66
2024/04/12 23:13:07;;;;;;;1999.90;999.90;;;;;;;15.57;96.49;102603.53;11285636;26;20532;-66
2024/04/12 23:18:12;;;;;;;1999.90;999.90;;;;;;;15.64;94.73;102597.00;11283604;26;19999;-66
2024/04/12 23:23:15;;;;;;;1999.90;999.90;;;;;;;15.41;96.52;102606.06;11283538;26;20038;-66
2024/04/12 23:28:17;;;;;;;1999.90;999.90;;;;;;;15.37;97.29;102599.22;11284053;26;20338;-66
2024/04/12 23:33:20;;;;;;;1999.90;999.90;;;;;;;15.29;98.43;102604.03;11284997;26;20010;-66
2024/04/12 23:38:22;;;;;;;1999.90;999.90;;;;;;;15.20;98.23;102608.81;11281566;26;19998;-66
2024/04/12 23:43:25;;;;;;;1999.90;999.90;;;;;;;15.26;98.65;102599.72;11284676;26;20009;-66
2024/04/12 23:48:27;;;;;;;1999.90;999.90;;;;;;;15.15;98.79;102600.25;11284109;26;20013;-66
2024/04/12 23:53:30;;;;;;;1999.90;999.90;;;;;;;15.07;100.00;102599.78;11282868;26;20331;-66
2024/04/12 23:58:32;;;;;;;1999.90;999.90;;;;;;;15.21;98.50;102594.69;11282466;26;19994;-66
